createdAt,value
2019-02-15T00:00:16.626Z,12.1
2019-02-15T00:01:06.668Z,12.2
2019-02-15T00:01:57.237Z,12.2
2019-02-15T00:02:46.042Z,12.2
2019-02-15T00:03:37.680Z,12.1
2019-02-15T00:04:27.467Z,12.1
2019-02-15T00:05:16.980Z,12.2
2019-02-15T00:06:07.303Z,12.1
2019-02-15T00:06:57.067Z,12.1
2019-02-15T00:07:47.978Z,12.1
2019-02-15T00:08:37.425Z,12.1
2019-02-15T00:09:26.255Z,12.1
2019-02-15T00:10:17.317Z,12.2
2019-02-15T00:11:06.580Z,12.2
2019-02-15T00:11:56.652Z,12.1
2019-02-15T00:12:47.270Z,12.2
2019-02-15T00:13:38.367Z,12.1
2019-02-15T00:14:28.399Z,12.1
2019-02-15T00:15:17.881Z,12.2
2019-02-15T00:16:07.738Z,12.2
2019-02-15T00:16:57.747Z,12.2
2019-02-15T00:17:48.047Z,12.1
2019-02-15T00:18:38.338Z,12.2
2019-02-15T00:19:27.733Z,12.1
2019-02-15T00:20:17.449Z,12.1
2019-02-15T00:21:08.629Z,12.2
2019-02-15T00:21:58.350Z,12.2
2019-02-15T00:22:48.126Z,12.1
2019-02-15T00:23:38.151Z,12.1
2019-02-15T00:24:28.840Z,12.2
2019-02-15T00:25:18.019Z,12.2
2019-02-15T00:26:08.142Z,12.1
2019-02-15T00:26:58.719Z,12.2
2019-02-15T00:27:47.628Z,12.1
2019-02-15T00:28:38.531Z,12.1
2019-02-15T00:29:29.182Z,12.2
2019-02-15T00:30:18.980Z,12.2
2019-02-15T00:31:08.418Z,12.2
2019-02-15T00:31:59.081Z,12.2
2019-02-15T00:32:48.576Z,12.2
2019-02-15T00:33:38.564Z,12.2
2019-02-15T00:34:29.538Z,12.2
2019-02-15T00:35:19.051Z,12.2
2019-02-15T00:36:08.841Z,12.2
2019-02-15T00:36:58.391Z,12.2
2019-02-15T00:37:48.940Z,12.2
2019-02-15T00:38:39.166Z,12.2
2019-02-15T00:39:28.560Z,12.2
2019-02-15T00:40:18.557Z,12.2
2019-02-15T00:41:08.863Z,12.2
2019-02-15T00:41:59.571Z,12.2
2019-02-15T00:42:48.999Z,12.2
2019-02-15T00:43:39.035Z,12.2
2019-02-15T00:44:29.943Z,12.2
2019-02-15T00:45:19.395Z,12.2
2019-02-15T00:46:08.907Z,12.2
2019-02-15T00:47:00.332Z,12.2
2019-02-15T00:47:49.812Z,12.2
2019-02-15T00:48:39.610Z,12.1
2019-02-15T00:49:29.724Z,12.2
2019-02-15T00:50:20.322Z,12.2
2019-02-15T00:51:09.787Z,12.2
2019-02-15T00:52:00.104Z,12.2
2019-02-15T00:52:49.930Z,12.2
2019-02-15T00:53:40.540Z,12.2
2019-02-15T00:54:30.557Z,12.3
2019-02-15T00:55:21.486Z,12.3
2019-02-15T00:56:10.209Z,12.2
2019-02-15T00:57:00.514Z,12.3
2019-02-15T00:57:50.569Z,12.3
2019-02-15T00:58:40.852Z,12.3
2019-02-15T00:59:31.827Z,12.3
2019-02-15T01:00:20.659Z,12.3
2019-02-15T01:01:11.138Z,12.2
2019-02-15T01:02:00.029Z,12.2
2019-02-15T01:02:51.409Z,12.3
2019-02-15T01:03:40.762Z,12.3
2019-02-15T01:04:30.762Z,12.2
2019-02-15T01:05:20.943Z,12.2
2019-02-15T01:06:10.307Z,12.3
2019-02-15T01:07:01.688Z,12.3
2019-02-15T01:07:51.828Z,12.3
2019-02-15T01:08:41.786Z,12.3
2019-02-15T01:09:30.604Z,12.3
2019-02-15T01:10:21.704Z,12.3
2019-02-15T01:11:11.249Z,12.3
2019-02-15T01:12:02.042Z,12.3
2019-02-15T01:12:51.306Z,12.3
2019-02-15T01:13:41.041Z,12.3
2019-02-15T01:14:31.646Z,12.3
2019-02-15T01:15:22.241Z,12.3
2019-02-15T01:16:11.583Z,12.3
2019-02-15T01:17:02.083Z,12.3
2019-02-15T01:17:51.953Z,12.3
2019-02-15T01:18:42.280Z,12.3
2019-02-15T01:19:31.763Z,12.3
2019-02-15T01:20:22.404Z,12.3
2019-02-15T01:21:12.656Z,12.3
2019-02-15T01:22:02.516Z,12.3
2019-02-15T01:22:51.770Z,12.3
2019-02-15T01:23:42.844Z,12.3
2019-02-15T01:24:31.790Z,12.3
2019-02-15T01:25:22.708Z,12.3
2019-02-15T01:26:11.935Z,12.3
2019-02-15T01:27:02.215Z,12.3
2019-02-15T01:27:52.810Z,12.3
2019-02-15T01:28:43.205Z,12.3
2019-02-15T01:29:32.953Z,12.3
2019-02-15T01:30:22.750Z,12.3
2019-02-15T01:31:13.357Z,12.3
2019-02-15T01:32:03.140Z,12.3
2019-02-15T01:32:53.477Z,12.2
2019-02-15T01:33:42.650Z,12.3
2019-02-15T01:34:32.862Z,12.2
2019-02-15T01:35:22.313Z,12.3
2019-02-15T01:36:13.464Z,12.2
2019-02-15T01:37:03.212Z,12.2
2019-02-15T01:37:54.099Z,12.3
2019-02-15T01:38:43.690Z,12.3
2019-02-15T01:39:33.658Z,12.3
2019-02-15T01:40:23.420Z,12.3
2019-02-15T01:41:13.727Z,12.3
2019-02-15T01:42:03.536Z,12.3
2019-02-15T01:42:53.567Z,12.3
2019-02-15T01:43:48.811Z,12.3
2019-02-15T01:44:34.043Z,12.3
2019-02-15T01:45:23.617Z,12.3
2019-02-15T01:46:14.399Z,12.3
2019-02-15T01:47:04.965Z,12.3
2019-02-15T01:47:53.689Z,12.3
2019-02-15T01:48:44.292Z,12.3
2019-02-15T01:49:33.650Z,12.3
2019-02-15T01:50:23.651Z,12.3
2019-02-15T01:51:13.968Z,12.3
2019-02-15T01:52:04.586Z,12.2
2019-02-15T01:52:54.638Z,12.1
2019-02-15T01:53:44.710Z,12.1
2019-02-15T01:54:34.978Z,12.1
2019-02-15T01:55:25.030Z,12.1
2019-02-15T01:56:14.104Z,12.1
2019-02-15T01:57:04.658Z,12.1
2019-02-15T01:57:54.663Z,12.1
2019-02-15T01:58:45.578Z,12.1
2019-02-15T01:59:34.481Z,12.1
2019-02-15T02:00:24.586Z,12.1
2019-02-15T02:01:14.313Z,12.1
2019-02-15T02:02:05.473Z,12.1
2019-02-15T02:02:54.802Z,12.1
2019-02-15T02:03:44.822Z,12.1
2019-02-15T02:04:34.787Z,12.1
2019-02-15T02:05:24.904Z,12.1
2019-02-15T02:06:14.766Z,12.1
2019-02-15T02:07:05.250Z,12
2019-02-15T02:07:55.883Z,12
2019-02-15T02:08:46.238Z,12
2019-02-15T02:09:35.462Z,12.1
2019-02-15T02:10:24.980Z,12
2019-02-15T02:11:15.304Z,12
2019-02-15T02:12:05.135Z,12
2019-02-15T02:12:56.222Z,11.9
2019-02-15T02:13:55.360Z,11.9
2019-02-15T02:14:35.830Z,11.9
2019-02-15T02:15:26.437Z,11.9
2019-02-15T02:16:15.170Z,11.9
2019-02-15T02:17:06.766Z,11.9
2019-02-15T02:17:56.940Z,11.9
2019-02-15T02:18:45.877Z,12
2019-02-15T02:19:36.454Z,12
2019-02-15T02:20:27.000Z,11.9
2019-02-15T02:21:16.555Z,11.9
2019-02-15T02:22:06.657Z,11.9
2019-02-15T02:22:56.999Z,11.9
2019-02-15T02:23:45.103Z,11.9
2019-02-15T02:24:37.016Z,11.9
2019-02-15T02:25:26.566Z,11.9
2019-02-15T02:26:16.858Z,11.9
2019-02-15T02:27:06.728Z,11.9
2019-02-15T02:27:57.234Z,11.9
2019-02-15T02:28:47.301Z,11.9
2019-02-15T02:29:37.386Z,11.9
2019-02-15T02:30:27.514Z,11.9
2019-02-15T02:31:16.540Z,11.9
2019-02-15T02:32:07.330Z,11.9
2019-02-15T02:32:57.078Z,11.9
2019-02-15T02:33:47.938Z,11.8
2019-02-15T02:34:36.212Z,11.8
2019-02-15T02:35:27.150Z,11.8
2019-02-15T02:36:17.086Z,11.8
2019-02-15T02:37:08.045Z,11.8
2019-02-15T02:37:57.823Z,11.7
2019-02-15T02:38:47.533Z,11.8
2019-02-15T02:39:37.602Z,11.8
2019-02-15T02:40:27.337Z,11.8
2019-02-15T02:41:18.327Z,11.7
2019-02-15T02:42:07.989Z,11.8
2019-02-15T02:42:58.346Z,11.8
2019-02-15T02:43:47.723Z,11.8
2019-02-15T02:44:37.875Z,11.8
2019-02-15T02:45:28.030Z,11.8
2019-02-15T02:46:18.077Z,11.8
2019-02-15T02:47:08.618Z,11.8
2019-02-15T02:47:58.175Z,11.8
2019-02-15T02:48:48.537Z,11.8
2019-02-15T02:49:38.493Z,11.8
2019-02-15T02:50:28.377Z,11.8
2019-02-15T02:51:18.367Z,11.7
2019-02-15T02:52:08.937Z,11.7
2019-02-15T02:52:59.585Z,11.6
2019-02-15T02:53:49.081Z,11.6
2019-02-15T02:54:39.268Z,11.6
2019-02-15T02:55:28.755Z,11.6
2019-02-15T02:56:18.733Z,11.7
2019-02-15T02:57:08.792Z,11.7
2019-02-15T02:57:59.065Z,11.7
2019-02-15T02:58:49.184Z,11.7
2019-02-15T02:59:39.491Z,11.7
2019-02-15T03:00:39.429Z,11.7
2019-02-15T03:01:19.942Z,11.6
2019-02-15T03:02:09.453Z,11.6
2019-02-15T03:02:59.399Z,11.6
2019-02-15T03:03:49.870Z,11.6
2019-02-15T03:04:39.606Z,11.6
2019-02-15T03:08:12.614Z,11.6
2019-02-15T03:09:01.242Z,11.6
2019-02-15T03:09:52.202Z,11.6
2019-02-15T03:10:42.813Z,11.6
2019-02-15T03:11:32.321Z,11.6
2019-02-15T03:12:22.613Z,11.6
2019-02-15T03:13:12.953Z,11.6
2019-02-15T03:14:14.471Z,11.6
2019-02-15T03:14:53.736Z,11.6
2019-02-15T03:15:43.132Z,11.6
2019-02-15T03:16:32.686Z,11.6
2019-02-15T03:17:22.521Z,11.6
2019-02-15T03:18:14.150Z,11.6
2019-02-15T03:19:03.650Z,11.5
2019-02-15T03:19:52.651Z,11.5
2019-02-15T03:20:44.085Z,11.5
2019-02-15T03:21:32.462Z,11.4
2019-02-15T03:22:23.643Z,11.4
2019-02-15T03:23:12.958Z,11.4
2019-02-15T03:24:04.534Z,11.5
2019-02-15T03:24:54.444Z,11.5
2019-02-15T03:25:43.886Z,11.4
2019-02-15T03:26:33.395Z,11.4
2019-02-15T03:27:23.851Z,11.5
2019-02-15T03:28:14.237Z,11.4
2019-02-15T03:29:03.383Z,11.4
2019-02-15T03:29:53.081Z,11.4
2019-02-15T03:30:44.754Z,11.4
2019-02-15T03:31:34.084Z,11.4
2019-02-15T03:32:24.687Z,11.4
2019-02-15T03:33:15.312Z,11.4
2019-02-15T03:34:04.886Z,11.4
2019-02-15T03:34:53.952Z,11.4
2019-02-15T03:35:43.711Z,11.4
2019-02-15T03:36:34.742Z,11.4
2019-02-15T03:37:24.905Z,11.4
2019-02-15T03:38:15.402Z,11.3
2019-02-15T03:39:05.064Z,11.3
2019-02-15T03:39:55.403Z,11.4
2019-02-15T03:40:45.453Z,11.4
2019-02-15T03:41:35.220Z,11.3
2019-02-15T03:42:25.092Z,11.4
2019-02-15T03:43:15.687Z,11.4
2019-02-15T03:44:05.297Z,11.3
2019-02-15T03:44:54.963Z,11.3
2019-02-15T03:45:46.171Z,11.3
2019-02-15T03:46:35.125Z,11.3
2019-02-15T03:47:25.839Z,11.3
2019-02-15T03:48:14.845Z,11.3
2019-02-15T03:49:05.552Z,11.4
2019-02-15T03:49:55.048Z,11.3
2019-02-15T03:50:45.837Z,11.4
2019-02-15T03:51:35.979Z,11.3
2019-02-15T03:52:25.997Z,11.3
2019-02-15T03:53:16.320Z,11.3
2019-02-15T03:54:04.771Z,11.3
2019-02-15T03:54:54.804Z,11.3
2019-02-15T03:55:45.486Z,11.3
2019-02-15T03:56:35.500Z,11.3
2019-02-15T03:57:25.331Z,11.3
2019-02-15T03:58:15.043Z,11.3
2019-02-15T03:59:04.902Z,11.3
2019-02-15T03:59:57.106Z,11.3
2019-02-15T04:00:46.548Z,11.3
2019-02-15T04:01:36.691Z,11.3
2019-02-15T04:02:25.612Z,11.3
2019-02-15T04:03:15.611Z,11.3
2019-02-15T04:04:05.905Z,11.2
2019-02-15T04:04:56.562Z,11.3
2019-02-15T04:05:46.636Z,11.3
2019-02-15T04:06:36.718Z,11.3
2019-02-15T04:07:27.180Z,11.3
2019-02-15T04:08:16.245Z,11.3
2019-02-15T04:09:07.465Z,11.3
2019-02-15T04:09:57.167Z,11.3
2019-02-15T04:10:46.903Z,11.2
2019-02-15T04:11:35.775Z,11.2
2019-02-15T04:12:27.668Z,11.3
2019-02-15T04:13:16.871Z,11.3
2019-02-15T04:14:06.793Z,11.3
2019-02-15T04:14:56.220Z,11.2
2019-02-15T04:15:47.065Z,11.3
2019-02-15T04:16:37.467Z,11.3
2019-02-15T04:17:26.402Z,11.3
2019-02-15T04:18:16.942Z,11.3
2019-02-15T04:19:06.387Z,11.3
2019-02-15T04:19:57.275Z,11.3
2019-02-15T04:20:47.102Z,11.3
2019-02-15T04:21:37.174Z,11.3
2019-02-15T04:22:27.447Z,11.2
2019-02-15T04:23:17.506Z,11.2
2019-02-15T04:24:08.776Z,11.2
2019-02-15T04:24:57.049Z,11.2
2019-02-15T04:25:47.604Z,11.2
2019-02-15T04:26:38.030Z,11.2
2019-02-15T04:27:28.447Z,11.2
2019-02-15T04:28:18.522Z,11.2
2019-02-15T04:29:08.310Z,11.2
2019-02-15T04:29:57.697Z,11.2
2019-02-15T04:30:48.105Z,11.2
2019-02-15T04:31:38.679Z,11.2
2019-02-15T04:32:29.226Z,11.1
2019-02-15T04:33:18.294Z,11.1
2019-02-15T04:34:08.550Z,11.2
2019-02-15T04:34:57.739Z,11.2
2019-02-15T04:35:48.257Z,11.1
2019-02-15T04:36:37.930Z,11.1
2019-02-15T04:37:27.689Z,11.2
2019-02-15T04:38:18.881Z,11.2
2019-02-15T04:39:08.985Z,11.2
2019-02-15T04:39:58.360Z,11.1
2019-02-15T04:40:48.511Z,11.1
2019-02-15T04:41:38.916Z,11.1
2019-02-15T04:42:28.853Z,11.1
2019-02-15T04:43:18.631Z,11.1
2019-02-15T04:44:09.794Z,11.1
2019-02-15T04:44:58.239Z,11.1
2019-02-15T04:45:49.087Z,11.1
2019-02-15T04:46:39.763Z,11.1
2019-02-15T04:47:29.027Z,11.1
2019-02-15T04:48:19.807Z,11.1
2019-02-15T04:49:09.339Z,11.1
2019-02-15T04:49:59.475Z,11.1
2019-02-15T04:50:50.051Z,11.2
2019-02-15T04:51:40.341Z,11.1
2019-02-15T04:52:30.113Z,11.1
2019-02-15T04:53:20.411Z,11.1
2019-02-15T04:54:09.890Z,11.1
2019-02-15T04:55:00.002Z,11.1
2019-02-15T04:55:50.318Z,11.1
2019-02-15T04:56:39.883Z,11.1
2019-02-15T04:57:29.373Z,11.1
2019-02-15T04:58:19.878Z,11.1
2019-02-15T04:59:09.546Z,11.1
2019-02-15T05:00:00.075Z,11.1
2019-02-15T05:00:50.431Z,11.1
2019-02-15T05:01:40.395Z,11.1
2019-02-15T05:02:29.887Z,11.1
2019-02-15T05:03:24.014Z,11.1
2019-02-15T05:04:11.138Z,11.1
2019-02-15T05:05:00.305Z,11.1
2019-02-15T05:05:50.483Z,11.1
2019-02-15T05:06:40.122Z,11.1
2019-02-15T05:07:30.016Z,11.1
2019-02-15T05:08:20.949Z,11.1
2019-02-15T05:09:10.690Z,11.1
2019-02-15T05:10:00.999Z,11.1
2019-02-15T05:10:50.512Z,11.1
2019-02-15T05:11:41.207Z,11.1
2019-02-15T05:12:30.936Z,11.1
2019-02-15T05:13:21.284Z,11.1
2019-02-15T05:14:11.606Z,11.1
2019-02-15T05:15:01.942Z,11.1
2019-02-15T05:15:51.397Z,11.1
2019-02-15T05:16:41.538Z,11.1
2019-02-15T05:17:30.923Z,11.1
2019-02-15T05:18:21.343Z,11.1
2019-02-15T05:19:11.070Z,11.1
2019-02-15T05:20:02.392Z,11.1
2019-02-15T05:20:51.996Z,11.1
2019-02-15T05:21:42.084Z,11.1
2019-02-15T05:22:32.633Z,11.1
2019-02-15T05:23:21.752Z,11.1
2019-02-15T05:24:12.858Z,11.1
2019-02-15T05:25:02.295Z,11.1
2019-02-15T05:25:52.092Z,11.1
2019-02-15T05:26:41.313Z,11.1
2019-02-15T05:27:31.683Z,11.1
2019-02-15T05:28:22.531Z,11.1
2019-02-15T05:29:12.918Z,11.1
2019-02-15T05:30:02.729Z,11
2019-02-15T05:30:52.520Z,11
2019-02-15T05:31:42.206Z,11
2019-02-15T05:32:32.805Z,11
2019-02-15T05:33:21.570Z,11
2019-02-15T05:34:12.683Z,11
2019-02-15T05:35:03.207Z,11
2019-02-15T05:35:52.805Z,11
2019-02-15T05:36:43.398Z,11
2019-02-15T05:37:32.985Z,11
2019-02-15T05:38:23.303Z,11
2019-02-15T05:39:13.529Z,11
2019-02-15T05:40:02.730Z,11
2019-02-15T05:40:53.465Z,11
2019-02-15T05:41:43.533Z,11
2019-02-15T05:42:33.547Z,11
2019-02-15T05:43:23.256Z,11
2019-02-15T05:44:13.385Z,11
2019-02-15T05:45:12.411Z,11
2019-02-15T05:45:52.127Z,11
2019-02-15T05:46:44.376Z,11
2019-02-15T05:47:33.873Z,10.9
2019-02-15T05:48:23.111Z,10.9
2019-02-15T05:49:13.434Z,11
2019-02-15T05:50:03.787Z,11
2019-02-15T05:50:53.815Z,10.9
2019-02-15T05:51:43.847Z,10.9
2019-02-15T05:52:33.631Z,10.9
2019-02-15T05:53:24.531Z,10.9
2019-02-15T05:54:13.989Z,10.9
2019-02-15T05:55:03.609Z,10.9
2019-02-15T05:55:53.922Z,11
2019-02-15T05:56:44.221Z,10.9
2019-02-15T05:57:34.256Z,11
2019-02-15T05:58:23.756Z,10.9
2019-02-15T05:59:13.259Z,10.9
2019-02-15T06:00:04.718Z,10.9
2019-02-15T06:00:54.216Z,10.9
2019-02-15T06:01:43.316Z,11
2019-02-15T06:02:34.660Z,10.9
2019-02-15T06:03:24.643Z,10.9
2019-02-15T06:06:12.850Z,10.9
2019-02-15T06:07:02.771Z,10.9
2019-02-15T06:07:53.490Z,10.9
2019-02-15T06:08:42.114Z,10.9
2019-02-15T06:09:32.743Z,10.9
2019-02-15T06:10:23.349Z,10.9
2019-02-15T06:11:16.878Z,10.9
2019-02-15T06:12:02.852Z,10.9
2019-02-15T06:12:52.785Z,10.9
2019-02-15T06:13:42.142Z,10.9
2019-02-15T06:14:33.120Z,10.9
2019-02-15T06:15:23.542Z,10.9
2019-02-15T06:16:12.905Z,10.9
2019-02-15T06:17:06.028Z,10.9
2019-02-15T06:17:53.784Z,10.9
2019-02-15T06:18:43.958Z,10.9
2019-02-15T06:19:32.547Z,10.9
2019-02-15T06:20:23.426Z,10.9
2019-02-15T06:21:14.072Z,10.9
2019-02-15T06:22:03.775Z,10.9
2019-02-15T06:22:53.320Z,10.9
2019-02-15T06:23:43.637Z,10.9
2019-02-15T06:24:33.974Z,10.9
2019-02-15T06:25:23.720Z,10.9
2019-02-15T06:26:14.064Z,10.9
2019-02-15T06:27:04.168Z,10.9
2019-02-15T06:27:54.914Z,10.9
2019-02-15T06:28:44.342Z,10.9
2019-02-15T06:29:33.784Z,10.9
2019-02-15T06:30:24.494Z,10.9
2019-02-15T06:31:13.396Z,10.9
2019-02-15T06:32:04.730Z,10.9
2019-02-15T06:32:54.547Z,10.9
2019-02-15T06:33:43.761Z,10.9
2019-02-15T06:34:34.125Z,10.9
2019-02-15T06:35:23.601Z,10.9
2019-02-15T06:36:14.822Z,10.9
2019-02-15T06:37:04.896Z,10.9
2019-02-15T06:37:55.153Z,10.9
2019-02-15T06:38:43.818Z,10.9
2019-02-15T06:39:34.706Z,10.9
2019-02-15T06:40:24.204Z,10.9
2019-02-15T06:41:17.020Z,10.9
2019-02-15T06:42:04.963Z,10.9
2019-02-15T06:42:55.908Z,10.9
2019-02-15T06:43:45.351Z,10.9
2019-02-15T06:44:35.022Z,10.9
2019-02-15T06:45:33.108Z,10.9
2019-02-15T06:46:15.479Z,10.9
2019-02-15T06:47:04.939Z,10.9
2019-02-15T06:47:55.600Z,10.9
2019-02-15T06:48:45.691Z,10.9
2019-02-15T06:49:35.945Z,10.9
2019-02-15T06:50:25.263Z,10.9
2019-02-15T06:51:15.849Z,10.9
2019-02-15T06:52:05.919Z,10.9
2019-02-15T06:52:55.438Z,10.9
2019-02-15T06:53:46.020Z,10.9
2019-02-15T06:54:35.767Z,10.9
2019-02-15T06:55:25.507Z,10.9
2019-02-15T06:56:15.870Z,10.9
2019-02-15T06:57:06.172Z,10.9
2019-02-15T06:57:56.220Z,10.9
2019-02-15T06:58:53.497Z,10.9
2019-02-15T06:59:35.227Z,10.9
2019-02-15T07:00:25.575Z,10.9
2019-02-15T07:01:16.489Z,10.9
2019-02-15T07:02:06.504Z,10.9
2019-02-15T07:02:55.818Z,10.9
2019-02-15T07:03:48.654Z,10.9
2019-02-15T07:06:12.206Z,10.8
2019-02-15T07:07:17.241Z,10.9
2019-02-15T07:07:53.093Z,10.9
2019-02-15T07:08:42.937Z,10.9
2019-02-15T07:09:32.618Z,10.9
2019-02-15T07:10:36.979Z,10.8
2019-02-15T07:11:13.226Z,10.9
2019-02-15T07:12:03.249Z,10.9
2019-02-15T07:12:53.392Z,10.8
2019-02-15T07:13:42.541Z,10.9
2019-02-15T07:14:32.727Z,10.9
2019-02-15T07:15:37.909Z,10.8
2019-02-15T07:16:12.934Z,10.9
2019-02-15T07:17:03.326Z,10.9
2019-02-15T07:17:53.866Z,10.9
2019-02-15T07:18:43.918Z,10.9
2019-02-15T07:20:02.885Z,10.9
2019-02-15T07:20:22.671Z,10.9
2019-02-15T07:21:14.271Z,10.9
2019-02-15T07:22:18.513Z,10.9
2019-02-15T07:23:08.235Z,10.9
2019-02-15T07:24:33.161Z,10.9
2019-02-15T07:25:23.314Z,10.9
2019-02-15T07:26:29.255Z,10.9
2019-02-15T07:27:03.320Z,10.9
2019-02-15T07:27:54.183Z,10.9
2019-02-15T07:28:46.511Z,10.9
2019-02-15T07:29:34.653Z,10.9
2019-02-15T07:30:24.315Z,10.9
2019-02-15T07:31:28.683Z,10.9
2019-02-15T07:32:03.055Z,10.9
2019-02-15T07:33:08.770Z,10.9
2019-02-15T07:33:44.630Z,10.8
2019-02-15T07:34:48.156Z,10.9
2019-02-15T07:35:38.568Z,10.9
2019-02-15T07:36:16.066Z,10.9
2019-02-15T07:37:36.071Z,10.9
2019-02-15T07:37:55.514Z,10.9
2019-02-15T07:38:44.026Z,10.9
2019-02-15T07:39:50.452Z,10.9
2019-02-15T07:40:24.382Z,10.9
2019-02-15T07:41:29.707Z,10.9
2019-02-15T07:42:18.335Z,10.9
2019-02-15T07:43:10.270Z,10.9
2019-02-15T07:43:44.879Z,10.9
2019-02-15T07:44:35.590Z,10.9
2019-02-15T07:45:27.108Z,10.9
2019-02-15T07:46:29.542Z,10.9
2019-02-15T07:47:05.512Z,10.9
2019-02-15T07:47:56.137Z,10.9
2019-02-15T07:48:44.697Z,10.9
2019-02-15T07:49:36.244Z,10.9
2019-02-15T07:50:26.814Z,10.9
2019-02-15T07:51:17.428Z,10.9
2019-02-15T07:52:49.522Z,10.9
2019-02-15T07:53:00.422Z,10.9
2019-02-15T07:53:50.741Z,10.9
2019-02-15T07:54:40.121Z,10.9
2019-02-15T07:55:30.187Z,10.9
2019-02-15T07:56:19.797Z,10.9
2019-02-15T07:57:10.639Z,10.9
2019-02-15T07:58:00.379Z,10.9
2019-02-15T07:58:49.911Z,10.9
2019-02-15T07:59:39.658Z,10.9
2019-02-15T08:00:30.084Z,10.8
2019-02-15T08:01:20.193Z,10.9
2019-02-15T08:02:10.911Z,10.9
2019-02-15T08:03:00.497Z,10.9
2019-02-15T08:03:51.026Z,10.9
2019-02-15T08:04:40.791Z,10.9
2019-02-15T08:05:31.410Z,10.9
2019-02-15T08:06:21.002Z,10.9
2019-02-15T08:07:10.753Z,10.9
2019-02-15T08:08:00.328Z,10.9
2019-02-15T08:08:51.030Z,10.9
2019-02-15T08:09:41.235Z,10.9
2019-02-15T08:10:30.403Z,10.9
2019-02-15T08:11:20.438Z,10.9
2019-02-15T08:12:11.087Z,10.9
2019-02-15T08:13:00.570Z,10.9
2019-02-15T08:13:50.102Z,10.9
2019-02-15T08:14:41.611Z,10.9
2019-02-15T08:15:40.548Z,10.9
2019-02-15T08:16:21.621Z,10.9
2019-02-15T08:17:10.960Z,10.9
2019-02-15T08:18:00.960Z,10.9
2019-02-15T08:18:51.605Z,10.8
2019-02-15T08:19:42.407Z,10.9
2019-02-15T08:20:31.053Z,10.9
2019-02-15T08:21:21.710Z,10.9
2019-02-15T08:22:11.735Z,10.9
2019-02-15T08:23:02.375Z,10.9
2019-02-15T08:23:52.165Z,10.9
2019-02-15T08:24:41.350Z,10.9
2019-02-15T08:25:32.280Z,10.9
2019-02-15T08:26:22.625Z,10.8
2019-02-15T08:27:12.402Z,10.9
2019-02-15T08:28:01.584Z,10.9
2019-02-15T08:28:52.597Z,10.9
2019-02-15T08:29:41.998Z,10.9
2019-02-15T08:30:32.597Z,10.9
2019-02-15T08:31:22.100Z,10.9
2019-02-15T08:32:13.706Z,10.9
2019-02-15T08:33:02.466Z,10.9
2019-02-15T08:33:52.559Z,10.9
2019-02-15T08:34:43.938Z,10.9
2019-02-15T08:35:32.289Z,10.9
2019-02-15T08:36:23.006Z,10.9
2019-02-15T08:37:14.853Z,10.9
2019-02-15T08:38:02.876Z,10.9
2019-02-15T08:38:53.811Z,10.9
2019-02-15T08:39:43.226Z,10.9
2019-02-15T08:40:34.104Z,10.9
2019-02-15T08:41:23.863Z,10.9
2019-02-15T08:42:12.915Z,10.9
2019-02-15T08:43:03.136Z,10.9
2019-02-15T08:43:53.576Z,10.9
2019-02-15T08:44:43.739Z,10.9
2019-02-15T08:45:34.009Z,10.9
2019-02-15T08:46:23.033Z,10.9
2019-02-15T08:47:13.376Z,10.8
2019-02-15T08:48:04.451Z,10.9
2019-02-15T08:48:54.831Z,10.8
2019-02-15T08:49:44.336Z,10.9
2019-02-15T08:50:33.643Z,10.9
2019-02-15T08:51:23.753Z,10.9
2019-02-15T08:52:15.075Z,10.8
2019-02-15T08:53:03.323Z,10.8
2019-02-15T08:53:56.256Z,10.9
2019-02-15T08:54:43.761Z,10.9
2019-02-15T08:55:32.804Z,10.8
2019-02-15T08:56:24.593Z,10.8
2019-02-15T08:57:14.474Z,10.9
2019-02-15T08:58:03.485Z,10.8
2019-02-15T08:58:54.306Z,10.9
2019-02-15T08:59:44.582Z,10.8
2019-02-15T09:00:34.131Z,10.8
2019-02-15T09:01:23.849Z,10.8
2019-02-15T09:02:14.168Z,10.8
2019-02-15T09:03:18.890Z,10.8
2019-02-15T09:03:54.118Z,10.8
2019-02-15T09:04:45.215Z,10.8
2019-02-15T09:05:34.479Z,10.8
2019-02-15T09:06:24.467Z,10.8
2019-02-15T09:07:15.626Z,10.8
2019-02-15T09:08:04.583Z,10.9
2019-02-15T09:08:54.968Z,10.8
2019-02-15T09:09:45.272Z,10.9
2019-02-15T09:10:34.997Z,10.9
2019-02-15T09:11:25.169Z,10.9
2019-02-15T09:12:15.991Z,10.9
2019-02-15T09:13:05.443Z,10.8
2019-02-15T09:13:54.497Z,10.9
2019-02-15T09:14:44.811Z,10.8
2019-02-15T09:15:34.836Z,10.9
2019-02-15T09:16:25.376Z,10.8
2019-02-15T09:17:14.906Z,10.9
2019-02-15T09:18:04.481Z,10.9
2019-02-15T09:18:56.046Z,10.9
2019-02-15T09:19:45.829Z,10.8
2019-02-15T09:20:35.924Z,10.9
2019-02-15T09:21:26.006Z,10.9
2019-02-15T09:22:16.281Z,10.8
2019-02-15T09:23:06.346Z,10.9
2019-02-15T09:23:57.435Z,10.9
2019-02-15T09:24:45.999Z,10.9
2019-02-15T09:25:36.851Z,10.9
2019-02-15T09:26:26.336Z,10.9
2019-02-15T09:27:16.420Z,10.9
2019-02-15T09:28:05.926Z,10.9
2019-02-15T09:28:56.268Z,10.9
2019-02-15T09:29:46.558Z,10.9
2019-02-15T09:30:36.351Z,10.9
2019-02-15T09:31:26.465Z,10.9
2019-02-15T09:32:16.488Z,10.9
2019-02-15T09:33:06.811Z,10.9
2019-02-15T09:33:56.753Z,10.9
2019-02-15T09:34:47.033Z,10.9
2019-02-15T09:35:36.990Z,10.9
2019-02-15T09:36:27.538Z,10.9
2019-02-15T09:37:17.063Z,10.9
2019-02-15T09:38:08.035Z,10.9
2019-02-15T09:38:57.960Z,10.9
2019-02-15T09:39:47.255Z,10.9
2019-02-15T09:40:37.182Z,10.9
2019-02-15T09:41:27.867Z,10.9
2019-02-15T09:42:18.172Z,10.9
2019-02-15T09:43:07.745Z,10.9
2019-02-15T09:43:57.497Z,10.9
2019-02-15T09:44:48.545Z,11
2019-02-15T09:45:40.429Z,11
2019-02-15T09:46:28.120Z,11.1
2019-02-15T09:47:18.598Z,11.1
2019-02-15T09:48:07.507Z,11.1
2019-02-15T09:48:57.959Z,11.2
2019-02-15T09:49:51.952Z,11.2
2019-02-15T09:50:38.801Z,11.2
2019-02-15T09:51:27.511Z,11.2
2019-02-15T09:52:18.626Z,11.3
2019-02-15T09:53:08.386Z,11.3
2019-02-15T09:53:59.044Z,11.3
2019-02-15T09:54:49.126Z,11.3
2019-02-15T09:55:38.689Z,11.3
2019-02-15T09:56:29.445Z,11.3
2019-02-15T09:57:19.229Z,11.3
2019-02-15T09:58:08.586Z,11.3
2019-02-15T09:58:58.311Z,11.3
2019-02-15T09:59:49.140Z,11.2
2019-02-15T10:00:39.186Z,11.2
2019-02-15T10:01:29.249Z,11.2
2019-02-15T10:02:17.949Z,11.2
2019-02-15T10:03:08.551Z,11.1
2019-02-15T10:04:01.481Z,11.1
2019-02-15T10:04:48.990Z,11.1
2019-02-15T10:07:12.710Z,11.1
2019-02-15T10:08:01.961Z,11.1
2019-02-15T10:08:52.073Z,11.2
2019-02-15T10:09:44.398Z,11.2
2019-02-15T10:10:32.755Z,11.3
2019-02-15T10:11:22.696Z,11.3
2019-02-15T10:12:12.545Z,11.2
2019-02-15T10:13:02.613Z,11.2
2019-02-15T10:13:52.548Z,11.3
2019-02-15T10:14:42.376Z,11.3
2019-02-15T10:15:33.558Z,11.3
2019-02-15T10:16:34.385Z,11.4
2019-02-15T10:17:12.098Z,11.4
2019-02-15T10:18:01.848Z,11.4
2019-02-15T10:18:53.492Z,11.4
2019-02-15T10:19:43.627Z,11.4
2019-02-15T10:20:31.785Z,11.4
2019-02-15T10:21:23.418Z,11.4
2019-02-15T10:22:15.336Z,11.4
2019-02-15T10:23:03.517Z,11.4
2019-02-15T10:23:53.607Z,11.4
2019-02-15T10:24:44.016Z,11.4
2019-02-15T10:25:33.980Z,11.4
2019-02-15T10:26:23.737Z,11.3
2019-02-15T10:27:13.185Z,11.3
2019-02-15T10:28:03.664Z,11.3
2019-02-15T10:28:53.505Z,11.3
2019-02-15T10:29:43.119Z,11.3
2019-02-15T10:30:33.807Z,11.3
2019-02-15T10:31:23.855Z,11.3
2019-02-15T10:32:14.994Z,11.4
2019-02-15T10:33:03.968Z,11.4
2019-02-15T10:33:54.289Z,11.5
2019-02-15T10:34:44.080Z,11.5
2019-02-15T10:35:34.345Z,11.5
2019-02-15T10:36:26.481Z,11.4
2019-02-15T10:37:13.389Z,11.5
2019-02-15T10:38:03.610Z,11.6
2019-02-15T10:38:54.722Z,11.6
2019-02-15T10:39:44.401Z,11.5
2019-02-15T10:40:33.966Z,11.4
2019-02-15T10:41:24.566Z,11.4
2019-02-15T10:42:29.206Z,11.4
2019-02-15T10:43:03.839Z,11.4
2019-02-15T10:43:54.975Z,11.4
2019-02-15T10:44:44.996Z,11.4
2019-02-15T10:45:34.065Z,11.4
2019-02-15T10:46:24.626Z,11.4
2019-02-15T10:47:32.259Z,11.3
2019-02-15T10:48:04.749Z,11.3
2019-02-15T10:48:55.046Z,11.3
2019-02-15T10:49:45.373Z,11.3
2019-02-15T10:50:34.890Z,11.3
2019-02-15T10:51:25.533Z,11.3
2019-02-15T10:52:15.005Z,11.3
2019-02-15T10:53:05.165Z,11.3
2019-02-15T10:53:55.746Z,11.3
2019-02-15T10:54:45.218Z,11.3
2019-02-15T10:55:34.969Z,11.3
2019-02-15T10:56:25.421Z,11.3
2019-02-15T10:57:16.231Z,11.3
2019-02-15T10:58:05.901Z,11.3
2019-02-15T10:58:55.735Z,11.3
2019-02-15T10:59:45.633Z,11.3
2019-02-15T11:00:34.802Z,11.3
2019-02-15T11:01:25.218Z,11.3
2019-02-15T11:02:15.340Z,11.3
2019-02-15T11:03:05.550Z,11.3
2019-02-15T11:03:54.879Z,11.3
2019-02-15T11:04:46.993Z,11.3
2019-02-15T11:05:36.455Z,11.3
2019-02-15T11:06:25.940Z,11.3
2019-02-15T11:07:15.736Z,11.3
2019-02-15T11:08:06.689Z,11.3
2019-02-15T11:08:56.437Z,11.3
2019-02-15T11:09:46.178Z,11.3
2019-02-15T11:10:39.025Z,11.2
2019-02-15T11:11:26.602Z,11.2
2019-02-15T11:12:16.641Z,11.2
2019-02-15T11:13:06.677Z,11.2
2019-02-15T11:13:55.962Z,11.3
2019-02-15T11:14:47.365Z,11.2
2019-02-15T11:15:37.400Z,11.3
2019-02-15T11:16:26.422Z,11.2